createdAt,value
2023-05-24T00:00:00.374Z,0.00
2023-05-24T00:01:00.374Z,0.00
2023-05-24T00:02:00.331Z,0.00
2023-05-24T00:03:00.442Z,0.00
2023-05-24T00:04:00.485Z,0.00
2023-05-24T00:05:00.585Z,0.00
2023-05-24T00:06:01.080Z,0.00
2023-05-24T00:07:01.311Z,0.00
2023-05-24T00:08:00.317Z,0.00
2023-05-24T00:09:00.326Z,0.00
2023-05-24T00:10:00.263Z,0.00
2023-05-24T00:11:00.292Z,0.00
2023-05-24T00:12:00.288Z,0.00
2023-05-24T00:13:00.287Z,0.00
2023-05-24T00:14:00.266Z,0.00
2023-05-24T00:15:00.309Z,0.00
2023-05-24T00:16:00.290Z,0.00
2023-05-24T00:17:00.314Z,0.00
2023-05-24T00:18:00.460Z,0.00
2023-05-24T00:19:00.220Z,0.00
2023-05-24T00:20:00.286Z,0.00
2023-05-24T00:21:00.222Z,0.00
2023-05-24T00:22:00.190Z,0.00
2023-05-24T00:23:00.172Z,0.00
2023-05-24T00:24:00.165Z,0.00
2023-05-24T00:25:00.221Z,0.00
2023-05-24T00:26:00.181Z,0.00
2023-05-24T00:27:00.142Z,0.00
2023-05-24T00:28:00.196Z,0.00
2023-05-24T00:29:00.145Z,0.00
2023-05-24T00:30:00.629Z,0.00
2023-05-24T00:31:00.221Z,0.00
2023-05-24T00:32:00.250Z,0.00
2023-05-24T00:33:00.123Z,0.00
2023-05-24T00:34:00.111Z,0.00
2023-05-24T00:35:00.154Z,0.00
2023-05-24T00:36:00.157Z,0.00
2023-05-24T00:37:00.054Z,0.00
2023-05-24T00:38:00.101Z,0.00
2023-05-24T00:39:00.109Z,0.00
2023-05-24T00:40:00.054Z,0.00
2023-05-24T00:41:00.094Z,0.00
2023-05-24T00:42:00.047Z,0.00
2023-05-24T00:43:00.055Z,0.00
2023-05-24T00:44:00.049Z,0.00
2023-05-24T00:45:00.006Z,0.00
2023-05-24T00:46:00.035Z,0.00
2023-05-24T00:47:00.002Z,0.00
2023-05-24T00:48:00.834Z,0.00
2023-05-24T00:48:59.996Z,0.00
2023-05-24T00:50:00.015Z,0.00
2023-05-24T00:50:59.949Z,0.00
2023-05-24T00:51:59.967Z,0.00
2023-05-24T00:52:59.985Z,0.00
2023-05-24T00:53:59.935Z,0.00
2023-05-24T00:54:59.960Z,0.00
2023-05-24T00:55:59.923Z,0.00
2023-05-24T00:57:00.234Z,0.00
2023-05-24T00:57:59.898Z,0.00
2023-05-24T00:59:00.904Z,0.00
2023-05-24T00:59:59.899Z,0.00
2023-05-24T01:01:00.895Z,0.00
2023-05-24T01:02:00.732Z,0.00
2023-05-24T01:02:59.946Z,0.00
2023-05-24T01:04:00.382Z,0.00
2023-05-24T01:04:59.908Z,0.00
2023-05-24T01:05:59.840Z,0.00
2023-05-24T01:06:59.828Z,0.00
2023-05-24T01:07:59.869Z,0.00
2023-05-24T01:08:59.837Z,0.00
2023-05-24T01:09:59.885Z,0.00
2023-05-24T01:11:00.137Z,0.00
2023-05-24T01:11:59.825Z,0.00
2023-05-24T01:12:59.841Z,0.00
2023-05-24T01:14:00.775Z,0.00
2023-05-24T01:14:59.776Z,0.00
2023-05-24T01:15:59.949Z,0.00
2023-05-24T01:16:59.819Z,0.00
2023-05-24T01:17:59.795Z,0.00
2023-05-24T01:18:59.795Z,0.00
2023-05-24T01:19:59.771Z,0.00
2023-05-24T01:20:59.744Z,0.00
2023-05-24T01:21:59.913Z,0.00
2023-05-24T01:22:59.811Z,0.00
2023-05-24T01:23:59.728Z,0.00
2023-05-24T01:24:59.696Z,0.00
2023-05-24T01:25:59.706Z,0.00
2023-05-24T01:26:59.700Z,0.00
2023-05-24T01:27:59.671Z,0.00
2023-05-24T01:28:59.661Z,0.00
2023-05-24T01:29:59.679Z,0.00
2023-05-24T01:30:59.781Z,0.00
2023-05-24T01:31:59.709Z,0.00
2023-05-24T01:32:59.665Z,0.00
2023-05-24T01:33:59.651Z,0.00
2023-05-24T01:35:01.193Z,0.00
2023-05-24T01:35:59.602Z,0.00
2023-05-24T01:36:59.885Z,0.00
2023-05-24T01:37:59.608Z,0.00
2023-05-24T01:38:59.572Z,0.00
2023-05-24T01:39:59.591Z,0.00
2023-05-24T01:40:59.608Z,0.00
2023-05-24T01:42:00.586Z,0.00
2023-05-24T01:42:59.880Z,0.00
2023-05-24T01:43:59.540Z,0.00
2023-05-24T01:44:59.550Z,0.00
2023-05-24T01:45:59.527Z,0.00
2023-05-24T01:46:59.549Z,0.00
2023-05-24T01:47:59.607Z,0.00
2023-05-24T01:48:59.499Z,0.00
2023-05-24T01:50:01.244Z,0.00
2023-05-24T01:50:59.545Z,0.00
2023-05-24T01:51:59.637Z,0.00
2023-05-24T01:52:59.514Z,0.00
2023-05-24T01:53:59.498Z,0.00
2023-05-24T01:54:59.476Z,0.00
2023-05-24T01:55:59.948Z,0.00
2023-05-24T01:56:59.442Z,0.00
2023-05-24T01:57:59.449Z,0.00
2023-05-24T01:58:59.452Z,0.00
2023-05-24T01:59:59.427Z,0.00
2023-05-24T02:00:59.490Z,0.00
2023-05-24T02:01:59.451Z,0.00
2023-05-24T02:02:59.554Z,0.00
2023-05-24T02:03:59.419Z,0.00
2023-05-24T02:04:59.404Z,0.00
2023-05-24T02:06:00.237Z,0.00
2023-05-24T02:06:59.399Z,0.00
2023-05-24T02:07:59.392Z,0.00
2023-05-24T02:08:59.394Z,0.00
2023-05-24T02:09:59.359Z,0.00
2023-05-24T02:10:59.331Z,0.00
2023-05-24T02:11:59.371Z,0.00
2023-05-24T02:12:59.330Z,0.00
2023-05-24T02:13:59.374Z,0.00
2023-05-24T02:14:59.315Z,0.00
2023-05-24T02:15:59.294Z,0.00
2023-05-24T02:16:59.498Z,0.00
2023-05-24T02:17:59.320Z,0.00
2023-05-24T02:18:59.354Z,0.00
2023-05-24T02:20:00.509Z,0.00
2023-05-24T02:20:59.287Z,0.00
2023-05-24T02:21:59.247Z,0.00
2023-05-24T02:22:59.232Z,0.00
2023-05-24T02:23:59.285Z,0.00
2023-05-24T02:24:59.235Z,0.00
2023-05-24T02:25:59.244Z,0.00
2023-05-24T02:26:59.237Z,0.00
2023-05-24T02:27:59.240Z,0.00
2023-05-24T02:28:59.227Z,0.00
2023-05-24T02:30:31.688Z,0.00
2023-05-24T02:30:59.209Z,0.00
2023-05-24T02:31:59.161Z,0.00
2023-05-24T02:32:59.267Z,0.00
2023-05-24T02:34:33.196Z,0.00
2023-05-24T02:34:59.150Z,0.00
2023-05-24T02:35:59.144Z,0.00
2023-05-24T02:36:59.158Z,4.00
2023-05-24T02:37:59.161Z,0.00
2023-05-24T02:38:59.124Z,4.00
2023-05-24T02:39:59.148Z,4.00
2023-05-24T02:40:59.103Z,4.00
2023-05-24T02:41:59.119Z,0.00
2023-05-24T02:42:59.198Z,0.00
2023-05-24T02:44:00.116Z,4.00
2023-05-24T02:44:59.071Z,4.00
2023-05-24T02:45:59.067Z,8.00
2023-05-24T02:46:59.095Z,4.00
2023-05-24T02:47:59.069Z,8.00
2023-05-24T02:48:59.071Z,4.00
2023-05-24T02:49:59.016Z,8.00
2023-05-24T02:51:00.032Z,8.00
2023-05-24T02:51:59.071Z,8.00
2023-05-24T02:52:59.039Z,8.00
2023-05-24T02:53:59.003Z,12.00
2023-05-24T02:54:58.976Z,12.00
2023-05-24T02:55:58.960Z,12.00
2023-05-24T02:56:58.981Z,20.00
2023-05-24T02:57:59.006Z,20.00
2023-05-24T02:58:59.017Z,24.00
2023-05-24T02:59:58.953Z,24.00
2023-05-24T03:00:58.964Z,28.00
2023-05-24T03:01:59.019Z,32.00
2023-05-24T03:02:59.020Z,40.00
2023-05-24T03:03:58.962Z,40.00
2023-05-24T03:04:58.933Z,44.00
2023-05-24T03:05:58.911Z,52.00
2023-05-24T03:06:59.160Z,64.00
2023-05-24T03:08:00.685Z,68.00
2023-05-24T03:08:58.888Z,72.00
2023-05-24T03:09:58.880Z,84.00
2023-05-24T03:10:59.766Z,96.00
2023-05-24T03:11:58.874Z,104.00
2023-05-24T03:12:59.773Z,116.00
2023-05-24T03:13:58.896Z,128.00
2023-05-24T03:14:58.860Z,144.00
2023-05-24T03:15:59.769Z,156.00
2023-05-24T03:16:59.352Z,172.00
2023-05-24T03:17:58.869Z,188.00
2023-05-24T03:18:58.804Z,204.00
2023-05-24T03:19:58.802Z,224.00
2023-05-24T03:20:58.816Z,244.00
2023-05-24T03:21:58.789Z,268.00
2023-05-24T03:22:58.790Z,292.00
2023-05-24T03:23:58.757Z,316.00
2023-05-24T03:24:58.792Z,344.00
2023-05-24T03:25:58.738Z,376.00
2023-05-24T03:26:58.781Z,412.00
2023-05-24T03:27:58.788Z,448.00
2023-05-24T03:28:58.807Z,484.00
2023-05-24T03:29:58.776Z,520.00
2023-05-24T03:30:58.754Z,560.00
2023-05-24T03:31:58.799Z,608.00
2023-05-24T03:32:58.762Z,652.00
2023-05-24T03:33:58.675Z,700.00
2023-05-24T03:34:58.708Z,756.00
2023-05-24T03:35:58.691Z,812.00
2023-05-24T03:36:58.665Z,876.00
2023-05-24T03:37:59.296Z,944.00
2023-05-24T03:38:58.702Z,1012.00
2023-05-24T03:39:58.668Z,1072.00
2023-05-24T03:40:58.617Z,1128.00
2023-05-24T03:41:58.635Z,1212.00
2023-05-24T03:42:58.667Z,1304.00
2023-05-24T03:43:58.654Z,1364.00
2023-05-24T03:44:58.620Z,1436.00
2023-05-24T03:45:58.610Z,1532.00
2023-05-24T03:46:58.583Z,1652.00
2023-05-24T04:03:05.091Z,5088.00
2023-05-24T04:04:05.088Z,5504.00
2023-05-24T04:05:05.023Z,5692.00
2023-05-24T04:06:04.976Z,5960.00
2023-05-24T04:07:05.006Z,6248.00
2023-05-24T04:08:06.144Z,6272.00
2023-05-24T04:09:06.102Z,6640.00
2023-05-24T04:10:06.105Z,6976.00
2023-05-24T04:11:06.097Z,7196.00
2023-05-24T04:12:06.121Z,7664.00
2023-05-24T04:13:06.112Z,8284.00
2023-05-24T04:14:06.077Z,8652.00
2023-05-24T04:15:06.077Z,9180.00
2023-05-24T04:16:06.053Z,10184.00
2023-05-24T04:17:06.143Z,10856.00
2023-05-24T04:18:06.151Z,10992.00
2023-05-24T04:19:06.031Z,11088.00
2023-05-24T04:20:06.061Z,11572.00
2023-05-24T04:21:06.035Z,12576.00
2023-05-24T04:22:06.021Z,13568.00
2023-05-24T04:23:06.005Z,14784.00
2023-05-24T04:24:05.995Z,15040.00
2023-05-24T04:25:06.019Z,14784.00
2023-05-24T04:26:06.011Z,15648.00
2023-05-24T04:27:05.983Z,16224.00
2023-05-24T04:28:05.974Z,15936.00
2023-05-24T04:29:05.953Z,15040.00
2023-05-24T04:30:05.974Z,14336.00
2023-05-24T04:31:06.021Z,14240.00
2023-05-24T04:32:05.921Z,14336.00
2023-05-24T04:33:06.037Z,14720.00
2023-05-24T04:34:05.924Z,14336.00
2023-05-24T04:35:05.980Z,14016.00
2023-05-24T04:36:05.952Z,13440.00
2023-05-24T04:37:05.908Z,12464.00
2023-05-24T04:38:05.944Z,8116.00
2023-05-24T04:39:05.931Z,6352.00
2023-05-24T04:40:05.873Z,5596.00
2023-05-24T04:41:05.918Z,5092.00
2023-05-24T04:42:05.874Z,4796.00
2023-05-24T04:43:05.839Z,4652.00
2023-05-24T04:44:05.868Z,4600.00
2023-05-24T04:45:05.823Z,4588.00
2023-05-24T04:46:06.870Z,4544.00
2023-05-24T04:47:05.883Z,4460.00
2023-05-24T04:48:05.836Z,4332.00
2023-05-24T04:49:05.995Z,4108.00
2023-05-24T04:50:05.814Z,3848.00
2023-05-24T04:51:05.785Z,3640.00
2023-05-24T04:52:05.806Z,3488.00
2023-05-24T04:53:05.795Z,3448.00
2023-05-24T04:54:05.764Z,3452.00
2023-05-24T04:55:05.769Z,3280.00
2023-05-24T04:56:05.778Z,3112.00
2023-05-24T04:57:05.752Z,3036.00
2023-05-24T04:58:05.780Z,2972.00
2023-05-24T04:59:05.803Z,2848.00
2023-05-24T05:00:05.750Z,2776.00
2023-05-24T05:01:05.804Z,2652.00
2023-05-24T05:02:05.889Z,2576.00
2023-05-24T05:03:05.851Z,2548.00
2023-05-24T05:04:06.787Z,2588.00
2023-05-24T05:05:05.715Z,2724.00
2023-05-24T05:06:05.673Z,2780.00
2023-05-24T05:07:05.682Z,2864.00
2023-05-24T05:08:05.684Z,2932.00
2023-05-24T05:09:05.651Z,2868.00
2023-05-24T05:10:05.675Z,2692.00
2023-05-24T05:11:05.658Z,2500.00
2023-05-24T05:12:05.613Z,2380.00
2023-05-24T05:13:05.638Z,2272.00
2023-05-24T05:14:05.663Z,2188.00
2023-05-24T05:15:05.619Z,2172.00
2023-05-24T05:16:05.671Z,2236.00
2023-05-24T05:17:06.200Z,2336.00
2023-05-24T05:18:05.667Z,2392.00
2023-05-24T05:19:05.621Z,2444.00
2023-05-24T05:20:05.723Z,2632.00
2023-05-24T05:21:05.579Z,2832.00
2023-05-24T05:22:38.141Z,2964.00
2023-05-24T05:23:05.544Z,3080.00
2023-05-24T05:24:05.566Z,3084.00
2023-05-24T05:25:39.206Z,3368.00
2023-05-24T05:26:05.520Z,3764.00
2023-05-24T05:27:05.540Z,4160.00
2023-05-24T05:28:05.508Z,4288.00
2023-05-24T05:29:05.510Z,4244.00
2023-05-24T05:30:05.477Z,4212.00
2023-05-24T05:31:05.482Z,4260.00
2023-05-24T05:32:05.508Z,4316.00
2023-05-24T05:33:05.515Z,4552.00
2023-05-24T05:34:05.454Z,5004.00
2023-05-24T05:35:05.480Z,5648.00
2023-05-24T05:36:05.448Z,6192.00
2023-05-24T05:37:05.435Z,6672.00
2023-05-24T05:38:05.415Z,7380.00
2023-05-24T05:39:05.427Z,8652.00
2023-05-24T05:40:05.395Z,10012.00
2023-05-24T05:41:05.440Z,26592.00
2023-05-24T05:42:05.378Z,20992.00
2023-05-24T05:43:05.379Z,10512.00
2023-05-24T05:44:05.379Z,11880.00
2023-05-24T05:45:05.378Z,46176.00
2023-05-24T05:46:05.361Z,13856.00
2023-05-24T05:47:05.343Z,20064.00
2023-05-24T05:48:05.505Z,13640.00
2023-05-24T05:49:05.314Z,20576.00
2023-05-24T05:50:05.302Z,10228.00
2023-05-24T05:51:06.334Z,10608.00
2023-05-24T05:52:05.306Z,9308.00
2023-05-24T05:53:05.362Z,7424.00
2023-05-24T05:54:05.287Z,6268.00
2023-05-24T05:55:05.289Z,5516.00
2023-05-24T05:56:05.304Z,5020.00
2023-05-24T05:57:05.269Z,4808.00
2023-05-24T05:58:05.283Z,4692.00
2023-05-24T05:59:05.282Z,4632.00
2023-05-24T06:00:05.308Z,4448.00
2023-05-24T06:01:05.237Z,4028.00
2023-05-24T06:02:05.261Z,3624.00
2023-05-24T06:03:05.273Z,3428.00
2023-05-24T06:04:05.328Z,3256.00
2023-05-24T06:05:05.233Z,2984.00
2023-05-24T06:06:05.188Z,2800.00
2023-05-24T06:07:05.181Z,2756.00
2023-05-24T06:08:05.181Z,2800.00
2023-05-24T06:09:05.174Z,2832.00
2023-05-24T06:10:05.183Z,2876.00
2023-05-24T06:11:05.187Z,2740.00
2023-05-24T06:12:05.153Z,2560.00
2023-05-24T06:13:05.159Z,2492.00
2023-05-24T06:14:05.128Z,2560.00
2023-05-24T06:15:05.164Z,2812.00
2023-05-24T06:16:05.209Z,3072.00
2023-05-24T06:17:05.093Z,3144.00
2023-05-24T06:18:05.135Z,3160.00
2023-05-24T06:19:06.637Z,3192.00
2023-05-24T06:20:06.160Z,3280.00
2023-05-24T06:21:05.057Z,3512.00
2023-05-24T06:22:05.070Z,3784.00
2023-05-24T06:23:05.032Z,3888.00
2023-05-24T06:24:05.064Z,4004.00
2023-05-24T06:25:05.050Z,4048.00
2023-05-24T06:26:05.075Z,3960.00
2023-05-24T06:27:05.663Z,3896.00
2023-05-24T06:28:06.103Z,3728.00
2023-05-24T06:29:05.020Z,3568.00
2023-05-24T06:30:05.074Z,3384.00
2023-05-24T06:31:05.041Z,3312.00
2023-05-24T06:32:05.010Z,3344.00
2023-05-24T06:33:05.056Z,3544.00
2023-05-24T06:34:05.041Z,3808.00
2023-05-24T06:35:05.981Z,4016.00
2023-05-24T06:36:05.045Z,4292.00
2023-05-24T06:37:04.977Z,4740.00
2023-05-24T06:38:04.923Z,5408.00
2023-05-24T06:39:04.955Z,6568.00
2023-05-24T06:40:04.963Z,7056.00
2023-05-24T06:41:04.915Z,7224.00
2023-05-24T06:42:04.910Z,8572.00
2023-05-24T06:43:04.910Z,14784.00
2023-05-24T06:44:04.920Z,17824.00
2023-05-24T06:45:04.881Z,28352.00
2023-05-24T06:46:04.899Z,15744.00
2023-05-24T06:47:04.906Z,10480.00
2023-05-24T06:48:04.968Z,8720.00
2023-05-24T06:49:04.892Z,7056.00
2023-05-24T06:50:04.885Z,5772.00
2023-05-24T06:51:04.824Z,5312.00
2023-05-24T06:52:04.805Z,5200.00
2023-05-24T06:53:04.846Z,4648.00
2023-05-24T06:54:04.871Z,4464.00
2023-05-24T06:55:04.845Z,4792.00
2023-05-24T06:56:04.798Z,5464.00
2023-05-24T06:57:04.781Z,6112.00
2023-05-24T06:58:04.766Z,5504.00
2023-05-24T06:59:04.793Z,4968.00
2023-05-24T07:00:05.765Z,4696.00
2023-05-24T07:01:05.095Z,4496.00
2023-05-24T07:02:04.969Z,4256.00
2023-05-24T07:03:04.801Z,3980.00
2023-05-24T07:04:04.801Z,3732.00
2023-05-24T07:05:04.905Z,3656.00
2023-05-24T07:06:04.721Z,3796.00
2023-05-24T07:07:04.723Z,3912.00
2023-05-24T07:08:19.336Z,3996.00
2023-05-24T07:09:04.680Z,4232.00
2023-05-24T07:10:04.708Z,4664.00
2023-05-24T07:11:04.699Z,4996.00
2023-05-24T07:12:06.418Z,5320.00
2023-05-24T07:13:05.608Z,5484.00
2023-05-24T07:14:04.666Z,5480.00
2023-05-24T07:15:04.636Z,5384.00
2023-05-24T07:16:04.663Z,5248.00
2023-05-24T07:17:04.694Z,5104.00
2023-05-24T07:18:04.651Z,4976.00
2023-05-24T07:19:05.170Z,4952.00
2023-05-24T07:20:05.720Z,4952.00
2023-05-24T07:21:04.667Z,4892.00
2023-05-24T07:22:04.634Z,4824.00
2023-05-24T07:23:04.576Z,4820.00
2023-05-24T07:24:04.572Z,4844.00
2023-05-24T07:25:04.587Z,4880.00
2023-05-24T07:26:04.599Z,4944.00
2023-05-24T07:27:04.583Z,5040.00
2023-05-24T07:28:04.527Z,5140.00
2023-05-24T07:29:04.543Z,5268.00
2023-05-24T07:30:04.538Z,5480.00
2023-05-24T07:31:04.529Z,5596.00
2023-05-24T07:32:04.570Z,5836.00
2023-05-24T07:33:04.562Z,5976.00
2023-05-24T07:34:04.522Z,6164.00
2023-05-24T07:35:04.518Z,6524.00
2023-05-24T07:36:04.517Z,7036.00
2023-05-24T07:37:04.477Z,7520.00
2023-05-24T07:38:04.476Z,8116.00
2023-05-24T07:39:04.492Z,8844.00
2023-05-24T07:40:05.309Z,10048.00
2023-05-24T07:41:04.466Z,12028.00
2023-05-24T07:42:04.471Z,15584.00
2023-05-24T07:43:04.562Z,23552.00
2023-05-24T07:44:04.470Z,18976.00
2023-05-24T07:45:04.428Z,17376.00
2023-05-24T07:46:04.481Z,15156.00
2023-05-24T07:47:04.457Z,13880.00
2023-05-24T07:48:04.443Z,14476.00
2023-05-24T07:49:04.407Z,27680.00
2023-05-24T07:50:04.416Z,59872.00
2023-05-24T07:51:04.389Z,22848.00
2023-05-24T07:52:04.388Z,18176.00
2023-05-24T07:53:04.413Z,15584.00
2023-05-24T07:54:04.355Z,14260.00
2023-05-24T07:55:04.405Z,13472.00
2023-05-24T07:56:04.366Z,12992.00
2023-05-24T07:57:05.167Z,12660.00
2023-05-24T07:58:04.344Z,12340.00
2023-05-24T07:59:04.334Z,11832.00
2023-05-24T08:00:04.317Z,11880.00
2023-05-24T08:01:04.300Z,12640.00
2023-05-24T08:02:04.306Z,13784.00
2023-05-24T08:03:04.370Z,14108.00
2023-05-24T08:04:04.480Z,14460.00
2023-05-24T08:05:04.282Z,14408.00
2023-05-24T08:06:04.264Z,15040.00
2023-05-24T08:07:04.283Z,15460.00
2023-05-24T08:08:04.258Z,14776.00
2023-05-24T08:09:04.837Z,13372.00
2023-05-24T08:10:04.261Z,12608.00
2023-05-24T08:11:04.246Z,12488.00
2023-05-24T08:12:04.216Z,12248.00
2023-05-24T08:13:04.213Z,12236.00
2023-05-24T08:14:04.261Z,12244.00
2023-05-24T08:15:04.238Z,12760.00
2023-05-24T08:16:04.170Z,12688.00
2023-05-24T08:17:04.195Z,12684.00
2023-05-24T08:18:05.190Z,12876.00
2023-05-24T08:19:04.149Z,13120.00
2023-05-24T08:20:04.161Z,12928.00
2023-05-24T08:21:04.149Z,13052.00
2023-05-24T08:22:04.145Z,13100.00
2023-05-24T08:23:04.123Z,13216.00
2023-05-24T08:24:06.146Z,13152.00
2023-05-24T08:25:04.134Z,12724.00
2023-05-24T08:26:04.135Z,12600.00
2023-05-24T08:27:04.116Z,13356.00
2023-05-24T08:28:04.139Z,14856.00
2023-05-24T08:29:04.122Z,16352.00
2023-05-24T08:30:04.106Z,18048.00
2023-05-24T08:31:04.151Z,18784.00
2023-05-24T08:32:04.150Z,18304.00
2023-05-24T08:33:04.113Z,17504.00
2023-05-24T08:34:04.138Z,17280.00
2023-05-24T08:35:18.590Z,16480.00
2023-05-24T08:36:06.018Z,15416.00
2023-05-24T08:37:04.028Z,15968.00
2023-05-24T08:38:04.032Z,21568.00
2023-05-24T08:39:04.037Z,16704.00
2023-05-24T08:40:04.006Z,14456.00
2023-05-24T08:41:04.062Z,13956.00
2023-05-24T08:42:09.858Z,15656.00
2023-05-24T08:43:06.015Z,16000.00
2023-05-24T08:44:03.986Z,20704.00
2023-05-24T08:45:03.988Z,18208.00
2023-05-24T08:46:04.036Z,18112.00
2023-05-24T08:47:04.005Z,19296.00
2023-05-24T08:48:04.084Z,19328.00
2023-05-24T08:49:04.017Z,19168.00
2023-05-24T08:50:03.937Z,19456.00
2023-05-24T08:51:03.925Z,20096.00
2023-05-24T08:52:03.914Z,17824.00
2023-05-24T08:53:03.936Z,15372.00
2023-05-24T08:54:03.899Z,13124.00
2023-05-24T08:55:03.926Z,12312.00
2023-05-24T08:56:03.903Z,12764.00
2023-05-24T08:57:03.875Z,12676.00
2023-05-24T08:58:03.875Z,14512.00
2023-05-24T08:59:03.907Z,22976.00
2023-05-24T09:00:05.807Z,16736.00
2023-05-24T09:01:03.913Z,15300.00
2023-05-24T09:02:03.987Z,14416.00
2023-05-24T09:03:03.849Z,13344.00
2023-05-24T09:04:03.985Z,11204.00
2023-05-24T09:05:03.875Z,10428.00
2023-05-24T09:06:03.893Z,10448.00
2023-05-24T09:07:03.802Z,10624.00
2023-05-24T09:08:03.800Z,10684.00
2023-05-24T09:09:03.803Z,10764.00
2023-05-24T09:10:03.844Z,10940.00
2023-05-24T09:11:03.776Z,11140.00
2023-05-24T09:12:03.816Z,11632.00
2023-05-24T09:13:03.807Z,12812.00
2023-05-24T09:14:03.746Z,13892.00
2023-05-24T09:15:35.692Z,13960.00
2023-05-24T09:16:03.780Z,14076.00
2023-05-24T09:17:36.481Z,14332.00
2023-05-24T09:18:03.762Z,14184.00
2023-05-24T09:19:36.305Z,14576.00
2023-05-24T09:20:03.775Z,15132.00
2023-05-24T09:21:03.739Z,17376.00
2023-05-24T09:22:03.678Z,14872.00
2023-05-24T09:23:03.705Z,19360.00
2023-05-24T09:24:03.655Z,24576.00
2023-05-24T09:25:03.716Z,18208.00
2023-05-24T09:26:03.673Z,15872.00
2023-05-24T09:27:03.674Z,15464.00
2023-05-24T09:28:03.638Z,14172.00
2023-05-24T09:29:03.635Z,13348.00
2023-05-24T09:30:03.677Z,13004.00
2023-05-24T09:31:06.216Z,13100.00
2023-05-24T09:32:04.640Z,13140.00
2023-05-24T09:33:03.638Z,13468.00
2023-05-24T09:34:03.600Z,13628.00
2023-05-24T09:35:03.625Z,13264.00
2023-05-24T09:36:03.665Z,12880.00
2023-05-24T09:37:03.616Z,12632.00
2023-05-24T09:38:03.574Z,12416.00
2023-05-24T09:39:04.301Z,11528.00
2023-05-24T09:40:03.555Z,10836.00
2023-05-24T09:41:03.582Z,10552.00
2023-05-24T09:42:03.605Z,10784.00
2023-05-24T09:43:03.516Z,10736.00
2023-05-24T09:44:03.513Z,10016.00
2023-05-24T09:45:03.511Z,9400.00
2023-05-24T09:46:03.515Z,9036.00
2023-05-24T09:47:03.527Z,8960.00
2023-05-24T09:48:03.559Z,8772.00
2023-05-24T09:49:03.526Z,8720.00
2023-05-24T09:50:03.564Z,8792.00
2023-05-24T09:51:03.481Z,8796.00
2023-05-24T09:52:03.558Z,9064.00
2023-05-24T09:53:03.480Z,9368.00
2023-05-24T09:54:03.539Z,9788.00
2023-05-24T09:55:03.406Z,9928.00
2023-05-24T09:56:03.427Z,10024.00
2023-05-24T09:57:04.803Z,10100.00
2023-05-24T09:58:03.409Z,10100.00
2023-05-24T09:59:03.452Z,10228.00
2023-05-24T10:00:03.403Z,10452.00
2023-05-24T10:01:03.486Z,10604.00
2023-05-24T10:02:03.386Z,10760.00
2023-05-24T10:03:05.017Z,10884.00
2023-05-24T10:04:05.472Z,10896.00
2023-05-24T10:05:03.397Z,10832.00
2023-05-24T10:06:03.371Z,10820.00
2023-05-24T10:07:03.407Z,10788.00
2023-05-24T10:08:03.325Z,10916.00
2023-05-24T10:09:03.374Z,11304.00
2023-05-24T10:10:05.992Z,11460.00
2023-05-24T10:11:03.405Z,11708.00
2023-05-24T10:12:03.350Z,11948.00
2023-05-24T10:13:03.320Z,11912.00
2023-05-24T10:14:03.339Z,11972.00
2023-05-24T10:15:03.299Z,12028.00
2023-05-24T10:16:03.343Z,12252.00
2023-05-24T10:17:03.327Z,12468.00
2023-05-24T10:18:03.294Z,12576.00
2023-05-24T10:19:03.283Z,12572.00
2023-05-24T10:20:03.308Z,12400.00
2023-05-24T10:21:03.367Z,15712.00
2023-05-24T10:22:03.220Z,12028.00
2023-05-24T10:23:04.224Z,11220.00
2023-05-24T10:24:03.227Z,10756.00
2023-05-24T10:25:03.207Z,10416.00
2023-05-24T10:26:03.229Z,10260.00
2023-05-24T10:27:03.198Z,10456.00
2023-05-24T10:28:03.168Z,10784.00
2023-05-24T10:29:04.196Z,11296.00
2023-05-24T10:30:04.575Z,11684.00
2023-05-24T10:31:03.303Z,12256.00
2023-05-24T10:32:03.917Z,12808.00
2023-05-24T10:33:04.221Z,13568.00
2023-05-24T10:34:07.903Z,15200.00
2023-05-24T10:35:05.173Z,19008.00
2023-05-24T10:36:03.123Z,19328.00
2023-05-24T10:37:03.902Z,16800.00
2023-05-24T10:38:03.140Z,17664.00
2023-05-24T10:39:03.099Z,17248.00
2023-05-24T10:40:03.097Z,15000.00
2023-05-24T10:41:03.084Z,14296.00
2023-05-24T10:42:03.084Z,13652.00
2023-05-24T10:43:03.056Z,13492.00
2023-05-24T10:45:04.070Z,13236.00
2023-05-24T10:46:03.061Z,13196.00
2023-05-24T10:47:03.941Z,13416.00
2023-05-24T10:48:03.192Z,13848.00
2023-05-24T10:49:17.490Z,18144.00
2023-05-24T10:50:03.001Z,16768.00
2023-05-24T10:51:03.988Z,17728.00
2023-05-24T10:52:03.020Z,14844.00
2023-05-24T10:53:03.005Z,12756.00
2023-05-24T10:54:03.051Z,11960.00
2023-05-24T10:55:04.271Z,11848.00
2023-05-24T10:56:04.005Z,11760.00
2023-05-24T10:57:02.999Z,12632.00
2023-05-24T10:58:03.002Z,11832.00
2023-05-24T10:59:02.996Z,12072.00
2023-05-24T11:00:02.974Z,14128.00
2023-05-24T11:01:02.996Z,14564.00
2023-05-24T11:02:02.990Z,13888.00
2023-05-24T11:03:03.005Z,13392.00
2023-05-24T11:04:02.914Z,12812.00
2023-05-24T11:05:02.995Z,12476.00
2023-05-24T11:06:02.940Z,12804.00
2023-05-24T11:07:02.910Z,13192.00
2023-05-24T11:08:02.872Z,12064.00
2023-05-24T11:09:02.849Z,12412.00
2023-05-24T11:10:02.950Z,12040.00
2023-05-24T11:11:15.039Z,11368.00
2023-05-24T11:12:04.834Z,11276.00
2023-05-24T11:13:02.849Z,14584.00
2023-05-24T11:14:02.904Z,13668.00
2023-05-24T11:15:02.861Z,10932.00
2023-05-24T11:16:02.849Z,10684.00
2023-05-24T11:17:02.844Z,11896.00
2023-05-24T11:18:03.528Z,12172.00
2023-05-24T11:19:02.808Z,10416.00
2023-05-24T11:20:02.874Z,10800.00
2023-05-24T11:21:02.821Z,9712.00
2023-05-24T11:22:02.795Z,10504.00
2023-05-24T11:23:02.805Z,11308.00
2023-05-24T11:24:02.796Z,11384.00
2023-05-24T11:25:02.770Z,11324.00
2023-05-24T11:26:02.797Z,12952.00
2023-05-24T11:27:02.799Z,13440.00
2023-05-24T11:28:02.792Z,13264.00
2023-05-24T11:29:05.216Z,13336.00
2023-05-24T11:30:03.743Z,13308.00
2023-05-24T11:31:02.749Z,13340.00
2023-05-24T11:32:03.528Z,13384.00
2023-05-24T11:33:02.722Z,13564.00
2023-05-24T11:34:02.723Z,13708.00
2023-05-24T11:35:02.709Z,13556.00
2023-05-24T11:36:02.695Z,13560.00
2023-05-24T11:37:02.660Z,13644.00
2023-05-24T11:38:02.717Z,14036.00
2023-05-24T11:39:02.624Z,13904.00
2023-05-24T11:40:02.684Z,12196.00
2023-05-24T11:41:02.706Z,12404.00
2023-05-24T11:42:02.635Z,13460.00
2023-05-24T11:43:02.742Z,13912.00
2023-05-24T11:44:02.645Z,10976.00
2023-05-24T11:45:02.669Z,10512.00
2023-05-24T11:46:02.788Z,10112.00
2023-05-24T11:47:02.605Z,10048.00
2023-05-24T11:48:02.602Z,9660.00
2023-05-24T11:49:02.604Z,9528.00
2023-05-24T11:50:02.648Z,9648.00
2023-05-24T11:51:02.563Z,9692.00
2023-05-24T11:52:02.535Z,9944.00
2023-05-24T11:53:02.612Z,12560.00
2023-05-24T11:54:02.556Z,12092.00
2023-05-24T11:55:02.573Z,13012.00
2023-05-24T11:56:02.565Z,14108.00
2023-05-24T11:57:02.538Z,14028.00
2023-05-24T11:58:02.604Z,13280.00
2023-05-24T11:59:02.529Z,13872.00
2023-05-24T12:00:03.366Z,13948.00
2023-05-24T12:01:02.492Z,13648.00
2023-05-24T12:02:02.609Z,13468.00
2023-05-24T12:03:02.596Z,13920.00
2023-05-24T12:04:02.617Z,10396.00
2023-05-24T12:05:03.583Z,9908.00
2023-05-24T12:06:02.464Z,9572.00
2023-05-24T12:07:03.577Z,9592.00
2023-05-24T12:08:02.460Z,9764.00
2023-05-24T12:09:02.514Z,9884.00
2023-05-24T12:10:02.504Z,10076.00
2023-05-24T12:11:02.449Z,10228.00
2023-05-24T12:12:02.434Z,10324.00
2023-05-24T12:13:02.426Z,10496.00
2023-05-24T12:14:02.467Z,10628.00
2023-05-24T12:15:02.505Z,11148.00
2023-05-24T12:16:02.406Z,14656.00
2023-05-24T12:17:02.428Z,14656.00
2023-05-24T12:18:02.472Z,14720.00
2023-05-24T12:19:07.134Z,14784.00
2023-05-24T12:20:04.480Z,14720.00
2023-05-24T12:21:02.337Z,10832.00
2023-05-24T12:22:02.349Z,10352.00
2023-05-24T12:23:02.593Z,11064.00
2023-05-24T12:24:02.340Z,11924.00
2023-05-24T12:25:02.362Z,10216.00
2023-05-24T12:26:02.356Z,10496.00
2023-05-24T12:27:02.362Z,12312.00
2023-05-24T12:28:02.291Z,11048.00
2023-05-24T12:29:03.130Z,13996.00
2023-05-24T12:30:02.281Z,13888.00